Back to top

Douglas, WY weather

Converse County Airport, Douglas, WY: 7/22/2019 13:53
Visibility10 statute milessun with a few clouds
View 7-Day Forecast
Area Summary
Sky/CloudsFew at 4200ft
Weather [last 24 hours]None
Pressure30.3 in.Hg (1026 hPa)
Dew Point60.1 °F (15.6 °C)
Relative Humidity47.5 %
Temperature82 °F (27.8 °C)red thermometer
Reading TimeMinimum to Maximum Temperature
6-hr ending 7/22@11:5361 °F to 77 °F (16.1 °C to 25 °C)
6-hr ending 7/22@05:5361 °F to 63 °F (16.1 °C to 17.2 °C)
6-hr ending 7/21@23:5362.1 °F to 81 °F (16.7 °C to 27.2 °C)
6-hr ending 7/21@17:5371.1 °F to 82 °F (21.7 °C to 27.8 °C)
24-hr ending 7/22@00:5352 °F to 82 °F (11.1 °C to 27.8 °C)
Wind19.6 MPH (17 KT) gusting to 27.6 MPH (24 KT)green arrow pointing 135 degrees
Wind FromSoutheast (130 Degrees)
Twilight Begins05:09Sunshine Yesterday
Sunrise05:42N/A
Sunset20:33
Twilight Ends21:07
METARKDGW 221953Z AUTO 13017G24KT 10SM FEW042 28/16 A3030 RMK AO2 SLP200 T02780156
Tags: